createdAt,value
2023-05-25T00:03:24.597Z,17.96
2023-05-25T00:07:13.689Z,17.94
2023-05-25T00:11:02.940Z,17.94
2023-05-25T00:14:51.883Z,17.86
2023-05-25T00:18:35.008Z,17.80
2023-05-25T00:22:07.813Z,17.50
2023-05-25T00:25:49.499Z,17.51
2023-05-25T00:29:31.510Z,17.75
2023-05-25T00:32:41.759Z,17.75
2023-05-25T00:36:30.943Z,17.67
2023-05-25T00:40:20.835Z,17.66
2023-05-25T00:43:59.758Z,17.48
2023-05-25T00:47:48.971Z,17.35
2023-05-25T00:51:31.004Z,17.59
2023-05-25T00:55:02.950Z,17.55
2023-05-25T00:58:41.184Z,17.70
2023-05-25T01:02:19.972Z,17.75
2023-05-25T01:05:58.501Z,17.86
2023-05-25T01:09:35.914Z,17.88
2023-05-25T01:13:24.952Z,17.63
2023-05-25T01:17:06.859Z,17.43
2023-05-25T01:20:55.929Z,17.02
2023-05-25T01:24:46.465Z,17.26
2023-05-25T01:28:41.512Z,17.38
2023-05-25T01:31:56.237Z,17.29
2023-05-25T01:35:39.957Z,17.37
2023-05-25T01:39:29.216Z,17.53
2023-05-25T01:43:03.564Z,17.50
2023-05-25T01:46:52.793Z,17.53
2023-05-25T01:50:34.683Z,17.44
2023-05-25T01:54:25.197Z,17.67
2023-05-25T01:58:06.862Z,17.43
2023-05-25T02:01:55.795Z,17.51
2023-05-25T02:05:27.886Z,17.38
2023-05-25T02:09:05.226Z,17.50
2023-05-25T02:12:54.295Z,17.25
2023-05-25T02:16:43.472Z,17.37
2023-05-25T02:20:31.167Z,17.44
2023-05-25T02:24:20.488Z,17.41
2023-05-25T02:27:54.277Z,17.40
2023-05-25T02:31:33.288Z,17.23
2023-05-25T02:35:22.491Z,17.33
2023-05-25T02:39:01.480Z,17.04
2023-05-25T02:42:48.240Z,16.93
2023-05-25T02:46:33.813Z,17.05
2023-05-25T02:50:23.046Z,17.03
2023-05-25T02:54:05.468Z,16.88
2023-05-25T02:57:53.430Z,16.76
2023-05-25T03:01:31.859Z,16.94
2023-05-25T03:05:20.818Z,16.77
2023-05-25T03:09:09.962Z,16.58
2023-05-25T03:12:51.599Z,16.77
2023-05-25T03:16:39.914Z,16.77
2023-05-25T03:20:29.385Z,16.88
2023-05-25T03:24:03.403Z,16.93
2023-05-25T03:27:45.281Z,17.07
2023-05-25T03:31:27.465Z,17.01
2023-05-25T03:35:16.827Z,17.15
2023-05-25T03:38:46.112Z,17.45
2023-05-25T03:42:35.078Z,17.62
2023-05-25T03:46:24.227Z,17.55
2023-05-25T03:50:13.530Z,18.34
2023-05-25T03:53:37.859Z,18.81
2023-05-25T03:57:27.136Z,18.97
2023-05-25T04:01:16.322Z,19.33
2023-05-25T04:05:05.369Z,19.49
2023-05-25T04:08:54.346Z,19.84
2023-05-25T04:12:28.818Z,20.19
2023-05-25T04:15:59.186Z,20.48
2023-05-25T04:19:26.938Z,20.94
2023-05-25T04:22:55.065Z,21.18
2023-05-25T04:26:29.425Z,20.43
2023-05-25T04:30:18.391Z,19.67
2023-05-25T04:33:51.249Z,19.02
2023-05-25T04:37:43.235Z,18.78
2023-05-25T04:41:32.424Z,18.53
2023-05-25T04:45:17.806Z,18.39
2023-05-25T04:48:59.238Z,18.45
2023-05-25T04:52:48.408Z,18.20
2023-05-25T04:56:35.980Z,18.48
2023-05-25T05:00:25.004Z,18.41
2023-05-25T05:03:59.366Z,18.65
2023-05-25T05:07:48.904Z,18.49
2023-05-25T05:11:31.862Z,18.31
2023-05-25T05:15:09.977Z,18.41
2023-05-25T05:18:59.271Z,18.74
2023-05-25T05:22:48.401Z,18.72
2023-05-25T05:26:15.505Z,18.64
2023-05-25T05:29:46.798Z,19.15
2023-05-25T05:33:24.745Z,19.33
2023-05-25T05:37:13.733Z,19.47
2023-05-25T05:40:45.681Z,19.50
2023-05-25T05:44:34.964Z,19.77
2023-05-25T05:48:09.866Z,19.65
2023-05-25T05:51:58.883Z,19.58
2023-05-25T05:55:48.477Z,19.62
2023-05-25T05:59:33.217Z,19.77
2023-05-25T06:03:22.390Z,19.82
2023-05-25T06:07:04.364Z,19.35
2023-05-25T06:10:46.308Z,20.04
2023-05-25T06:14:20.384Z,19.96
2023-05-25T06:18:09.416Z,19.76
2023-05-25T06:21:30.921Z,20.07
2023-05-25T06:25:04.212Z,19.99
2023-05-25T06:28:53.489Z,19.86
2023-05-25T06:32:42.882Z,20.29
2023-05-25T06:36:32.265Z,20.52
2023-05-25T06:40:21.180Z,20.41
2023-05-25T06:44:10.206Z,20.44
2023-05-25T06:47:46.051Z,20.66
2023-05-25T06:51:34.705Z,21.44
2023-05-25T06:55:23.717Z,22.31
2023-05-25T06:59:06.240Z,23.05
2023-05-25T07:02:55.260Z,22.68
2023-05-25T07:06:44.394Z,23.10
2023-05-25T07:10:33.423Z,23.15
2023-05-25T07:14:21.078Z,23.16
2023-05-25T07:18:10.249Z,24.07
2023-05-25T07:21:59.118Z,24.26
2023-05-25T07:25:48.194Z,23.88
2023-05-25T07:29:28.411Z,23.19
2023-05-25T07:33:18.727Z,24.03
2023-05-25T07:37:07.924Z,23.67
2023-05-25T07:40:57.191Z,24.61
2023-05-25T07:44:46.517Z,24.93
2023-05-25T07:48:35.687Z,25.39
2023-05-25T07:52:24.922Z,26.10
2023-05-25T07:56:14.550Z,26.61
2023-05-25T07:59:57.699Z,27.06
2023-05-25T08:03:11.640Z,27.23
2023-05-25T08:06:39.575Z,26.62
2023-05-25T08:10:28.729Z,27.34
2023-05-25T08:14:00.392Z,27.33
2023-05-25T08:17:43.692Z,26.64
2023-05-25T08:21:34.703Z,26.52
2023-05-25T08:25:24.207Z,26.19
2023-05-25T08:29:06.265Z,25.24
2023-05-25T08:32:56.103Z,26.54
2023-05-25T08:36:38.196Z,27.43
2023-05-25T08:40:27.576Z,28.03
2023-05-25T08:43:49.923Z,25.01
2023-05-25T08:47:39.544Z,26.33
2023-05-25T08:51:20.888Z,27.18
2023-05-25T08:54:53.325Z,26.39
2023-05-25T08:58:47.337Z,25.43
2023-05-25T09:02:39.146Z,25.98
2023-05-25T09:06:21.543Z,26.25
2023-05-25T09:10:08.492Z,25.19
2023-05-25T09:13:57.404Z,26.44
2023-05-25T09:17:21.103Z,27.04
2023-05-25T09:21:13.344Z,27.18
2023-05-25T09:24:45.939Z,26.18
2023-05-25T09:28:26.749Z,26.51
2023-05-25T09:32:16.250Z,26.59
2023-05-25T09:36:11.366Z,28.09
2023-05-25T09:39:51.527Z,27.65
2023-05-25T09:43:39.816Z,26.69
2023-05-25T09:47:21.172Z,26.26
2023-05-25T09:51:00.613Z,27.79
2023-05-25T09:54:49.838Z,27.07
2023-05-25T09:58:27.478Z,26.36
2023-05-25T10:02:16.575Z,25.78
2023-05-25T10:06:05.308Z,25.52
2023-05-25T10:09:36.706Z,26.21
2023-05-25T10:13:25.930Z,28.06
2023-05-25T10:16:50.025Z,26.33
2023-05-25T10:20:39.344Z,25.69
2023-05-25T10:24:05.434Z,25.33
2023-05-25T10:27:48.135Z,26.37
2023-05-25T10:31:40.061Z,26.14
2023-05-25T10:35:22.424Z,27.34
2023-05-25T10:39:11.703Z,26.35
2023-05-25T10:42:43.252Z,25.94
2023-05-25T10:46:32.284Z,26.48
2023-05-25T10:50:15.076Z,27.22
2023-05-25T10:54:03.394Z,27.21
2023-05-25T10:57:53.046Z,26.81
2023-05-25T11:01:52.053Z,27.06
2023-05-25T11:05:33.819Z,26.65
2023-05-25T11:09:15.839Z,27.39
2023-05-25T11:13:04.851Z,27.63
2023-05-25T11:17:09.408Z,27.65
2023-05-25T11:21:03.055Z,28.01
2023-05-25T11:24:53.582Z,27.92
2023-05-25T11:28:45.192Z,28.10
2023-05-25T11:32:32.682Z,27.95
2023-05-25T11:36:22.028Z,28.96
2023-05-25T11:39:51.193Z,29.71
2023-05-25T11:43:21.295Z,29.28
2023-05-25T11:47:04.505Z,28.45
2023-05-25T11:50:33.550Z,28.89
2023-05-25T11:54:15.876Z,28.96
2023-05-25T11:58:10.060Z,28.74
2023-05-25T12:02:02.621Z,28.19
2023-05-25T12:05:58.308Z,28.59
2023-05-25T12:09:42.244Z,27.57
2023-05-25T12:13:19.107Z,28.72
2023-05-25T12:17:09.816Z,29.74
2023-05-25T12:20:49.906Z,29.78
2023-05-25T12:24:25.189Z,30.51
2023-05-25T12:28:00.790Z,31.44
2023-05-25T12:31:31.418Z,31.21
2023-05-25T12:35:10.013Z,31.17
2023-05-25T12:39:01.932Z,29.92
2023-05-25T12:42:59.087Z,30.15
2023-05-25T12:46:48.533Z,30.86
2023-05-25T12:50:56.578Z,30.88
2023-05-25T12:54:47.106Z,31.04
2023-05-25T12:58:37.432Z,29.64
2023-05-25T13:02:30.183Z,28.55
2023-05-25T13:06:11.064Z,29.56
2023-05-25T13:10:04.846Z,30.46
2023-05-25T13:13:57.014Z,30.40
2023-05-25T13:17:49.163Z,30.57
2023-05-25T13:21:38.802Z,29.48
2023-05-25T13:25:54.860Z,29.30
2023-05-25T13:29:45.745Z,28.97
2023-05-25T13:33:37.579Z,30.82
2023-05-25T13:38:05.862Z,30.12
2023-05-25T13:41:16.610Z,30.53
2023-05-25T13:44:38.477Z,30.72
2023-05-25T13:48:00.961Z,31.16
2023-05-25T13:51:41.987Z,31.10
2023-05-25T13:55:13.720Z,31.70
2023-05-25T13:58:55.269Z,30.14
2023-05-25T14:02:37.194Z,29.30
2023-05-25T14:06:14.099Z,29.24
2023-05-25T14:09:41.844Z,30.52
2023-05-25T14:13:06.167Z,30.72
2023-05-25T14:16:26.151Z,31.50
2023-05-25T14:20:05.653Z,31.15
2023-05-25T14:24:26.720Z,31.18
2023-05-25T14:28:55.759Z,30.34
2023-05-25T14:33:24.946Z,28.68
2023-05-25T14:37:54.540Z,29.28
2023-05-25T14:49:25.761Z,29.88
2023-05-25T14:53:14.835Z,29.66
2023-05-25T14:57:03.924Z,29.84
2023-05-25T15:00:53.013Z,30.21
2023-05-25T15:04:41.981Z,28.82
2023-05-25T15:08:31.039Z,28.18
2023-05-25T15:12:20.156Z,29.08
2023-05-25T15:16:09.608Z,28.98
2023-05-25T15:19:32.657Z,29.92
2023-05-25T15:23:07.639Z,30.44
2023-05-25T15:26:49.922Z,30.77
2023-05-25T15:30:28.712Z,30.90
2023-05-25T15:34:18.206Z,30.56
2023-05-25T15:37:57.811Z,31.13
2023-05-25T15:41:46.723Z,32.06
2023-05-25T15:45:35.646Z,29.69
2023-05-25T15:49:12.498Z,29.68
2023-05-25T15:52:53.938Z,29.42
2023-05-25T15:56:42.880Z,29.28
2023-05-25T16:00:25.946Z,30.57
2023-05-25T16:03:36.858Z,29.67
2023-05-25T16:07:08.265Z,30.08
2023-05-25T16:10:22.314Z,30.84
2023-05-25T16:14:10.085Z,30.61
2023-05-25T16:17:25.925Z,29.55
2023-05-25T16:20:57.186Z,29.92
2023-05-25T16:24:46.418Z,30.77
2023-05-25T16:28:27.549Z,29.62
2023-05-25T16:32:02.056Z,29.41
2023-05-25T16:35:25.362Z,28.19
2023-05-25T16:39:14.349Z,28.85
2023-05-25T16:43:03.576Z,28.95
2023-05-25T16:46:32.889Z,28.03
2023-05-25T16:50:10.376Z,28.51
2023-05-25T16:53:59.088Z,28.12
2023-05-25T16:57:34.740Z,27.90
2023-05-25T17:01:22.467Z,28.51
2023-05-25T17:04:42.908Z,28.19
2023-05-25T17:08:24.285Z,27.51
2023-05-25T17:12:03.511Z,27.82
2023-05-25T17:15:52.779Z,28.36
2023-05-25T17:19:24.738Z,28.46
2023-05-25T17:23:04.634Z,27.92
2023-05-25T17:26:24.289Z,27.22
2023-05-25T17:29:50.467Z,27.12
2023-05-25T17:32:58.183Z,27.15
2023-05-25T17:40:21.048Z,26.20
2023-05-25T17:44:00.444Z,25.95
2023-05-25T17:47:35.224Z,25.50
2023-05-25T17:55:11.124Z,24.72
2023-05-25T17:58:30.068Z,24.57
2023-05-25T18:02:14.121Z,24.47
2023-05-25T18:05:55.807Z,24.29
2023-05-25T18:09:04.246Z,24.29
2023-05-25T18:12:40.183Z,24.13
2023-05-25T18:15:57.703Z,23.98
2023-05-25T18:19:20.459Z,24.05
2023-05-25T18:22:30.745Z,23.89
2023-05-25T18:25:54.890Z,23.63
2023-05-25T18:29:27.348Z,23.29
2023-05-25T18:33:00.166Z,23.03
2023-05-25T18:36:08.039Z,22.87
2023-05-25T18:39:40.746Z,22.64
2023-05-25T18:43:12.763Z,22.38
2023-05-25T18:46:58.316Z,22.17
2023-05-25T18:50:20.046Z,21.69
2023-05-25T18:53:16.270Z,21.45
2023-05-25T18:56:28.146Z,21.33
2023-05-25T19:00:14.635Z,21.03
2023-05-25T19:03:38.829Z,20.80
2023-05-25T19:06:33.225Z,20.75
2023-05-25T19:10:10.277Z,20.66
2023-05-25T19:13:25.741Z,20.62
2023-05-25T19:16:57.495Z,20.48
2023-05-25T19:19:58.697Z,20.56
2023-05-25T19:23:41.236Z,20.49
2023-05-25T19:26:57.646Z,20.51
2023-05-25T19:29:54.309Z,20.43
2023-05-25T19:33:09.185Z,20.47
2023-05-25T19:36:33.969Z,20.40
2023-05-25T19:39:42.682Z,20.27
2023-05-25T19:43:23.062Z,20.24
2023-05-25T19:46:44.544Z,20.13
2023-05-25T19:50:36.205Z,19.94
2023-05-25T19:53:32.193Z,19.86
2023-05-25T19:56:21.095Z,19.83
2023-05-25T19:59:16.911Z,19.85
2023-05-25T20:01:58.513Z,19.90
2023-05-25T20:05:09.990Z,19.76
2023-05-25T20:07:55.907Z,19.61
2023-05-25T20:10:58.259Z,19.67
2023-05-25T20:14:28.152Z,19.70
2023-05-25T20:17:51.366Z,19.54
2023-05-25T20:21:40.630Z,19.48
2023-05-25T20:25:01.588Z,19.44
2023-05-25T20:28:50.249Z,19.46
2023-05-25T20:32:39.792Z,19.29
2023-05-25T20:36:19.250Z,19.23
2023-05-25T20:39:58.392Z,19.11
2023-05-25T20:43:47.522Z,18.97
2023-05-25T20:47:37.414Z,18.97
2023-05-25T20:51:27.280Z,19.04
2023-05-25T20:55:08.846Z,18.69
2023-05-25T20:58:57.877Z,18.58
2023-05-25T21:02:47.339Z,18.49
2023-05-25T21:06:27.665Z,18.46
2023-05-25T21:10:00.384Z,18.36
2023-05-25T21:13:48.253Z,18.31
2023-05-25T21:16:51.518Z,18.27
2023-05-25T21:20:29.823Z,18.16
2023-05-25T21:24:03.397Z,18.33
2023-05-25T21:27:53.346Z,18.26
2023-05-25T21:31:41.893Z,18.09
2023-05-25T21:35:16.195Z,17.95
2023-05-25T21:38:50.725Z,18.00
2023-05-25T21:42:37.235Z,17.79
2023-05-25T21:46:26.174Z,17.69
2023-05-25T21:50:07.956Z,17.46
2023-05-25T21:53:46.854Z,17.41
2023-05-25T21:57:28.707Z,17.38
2023-05-25T22:01:10.557Z,17.31
2023-05-25T22:04:44.457Z,17.41
2023-05-25T22:08:25.931Z,17.37
2023-05-25T22:11:59.622Z,17.32
2023-05-25T22:15:29.460Z,17.26
2023-05-25T22:19:18.444Z,17.18
2023-05-25T22:23:07.311Z,17.11
2023-05-25T22:26:40.110Z,17.16
2023-05-25T22:30:29.163Z,17.00
2023-05-25T22:34:18.022Z,16.99
2023-05-25T22:38:07.021Z,16.97
2023-05-25T22:41:54.606Z,16.88
2023-05-25T22:45:26.563Z,16.93
2023-05-25T22:49:15.451Z,16.87
2023-05-25T22:53:01.812Z,16.91
2023-05-25T22:56:50.756Z,16.74
2023-05-25T23:00:22.540Z,16.65
2023-05-25T23:04:11.654Z,16.64
2023-05-25T23:07:59.139Z,16.37
2023-05-25T23:11:33.254Z,16.29
2023-05-25T23:15:01.876Z,16.23
2023-05-25T23:18:39.916Z,16.28
2023-05-25T23:22:28.878Z,16.32
2023-05-25T23:26:17.907Z,16.26
2023-05-25T23:29:59.610Z,16.22
2023-05-25T23:33:41.139Z,16.13
2023-05-25T23:37:29.995Z,15.98
2023-05-25T23:41:08.989Z,15.98
2023-05-25T23:44:47.902Z,16.06
2023-05-25T23:48:31.694Z,16.04
2023-05-25T23:52:20.600Z,16.00
2023-05-25T23:56:09.511Z,15.98
2023-05-25T23:59:58.382Z,15.92
